Time;durP1;ratioP1;P1;durP2;ratioP2;P2;SDS_P1;SDS_P2;PMS_P1;PMS_P2;Temp;Humidity;BMP_temperature;BMP_pressure;BME280_temperature;BME280_humidity;BME280_pressure;Samples;Min_cycle;Max_cycle;Signal;HPM_P1;HPM_P2
2024/03/07 00:00:25;;;;;;;19.00;9.20;;;;;;;-1.03;67.77;99846.47;78663;1297;3050666;-78
2024/03/07 00:02:51;;;;;;;16.90;9.20;;;;;;;-1.01;67.69;99844.73;79836;1294;3018602;-76
2024/03/07 00:05:19;;;;;;;17.00;9.20;;;;;;;-0.97;67.53;99850.89;79759;1294;3011835;-78
2024/03/07 00:07:47;;;;;;;17.50;8.60;;;;;;;-0.95;67.64;99851.22;78590;1294;3050543;-74
2024/03/07 00:10:15;;;;;;;17.20;8.40;;;;;;;-0.91;67.53;99852.91;79904;1293;3013773;-77
2024/03/07 00:12:41;;;;;;;17.60;9.90;;;;;;;-0.90;67.20;99847.91;79859;1293;3011427;-73
2024/03/07 00:15:11;;;;;;;20.30;9.60;;;;;;;-0.93;67.25;99848.11;78508;1294;3026142;-76
2024/03/07 00:17:40;;;;;;;17.80;9.50;;;;;;;-0.89;67.13;99852.73;79959;1296;3011916;-77
2024/03/07 00:20:09;;;;;;;17.30;8.00;;;;;;;-0.90;67.23;99844.99;78702;1296;3026269;-75
2024/03/07 00:22:36;;;;;;;17.40;9.10;;;;;;;-0.87;67.04;99847.03;79828;1296;3014031;-77
2024/03/07 00:25:06;;;;;;;16.70;9.20;;;;;;;-0.98;67.23;99844.73;79939;1293;3011945;-77
2024/03/07 00:27:38;;;;;;;17.90;8.90;;;;;;;-0.92;67.16;99844.83;78620;1293;3050425;-75
2024/03/07 00:30:13;;;;;;;19.80;9.60;;;;;;;-0.90;66.66;99844.65;79977;1294;3011567;-78
2024/03/07 00:32:41;;;;;;;21.10;9.30;;;;;;;-0.91;66.71;99837.95;78512;1296;3050166;-74
2024/03/07 00:35:10;;;;;;;24.10;8.80;;;;;;;-0.89;66.61;99842.58;79792;1295;3018899;-76
2024/03/07 00:37:40;;;;;;;19.30;8.70;;;;;;;-0.95;66.65;99843.30;79282;1297;3011701;-77
2024/03/07 00:40:08;;;;;;;17.70;9.30;;;;;;;-1.03;66.80;99842.68;80056;1293;3015900;-76
2024/03/07 00:42:35;;;;;;;16.70;9.00;;;;;;;-1.05;66.72;99840.11;79647;1294;3012833;-75
2024/03/07 00:45:05;;;;;;;20.60;9.60;;;;;;;-1.14;66.97;99840.52;78394;1296;3048877;-76
2024/03/07 00:47:34;;;;;;;17.00;9.60;;;;;;;-1.18;67.05;99840.55;79771;1294;3011962;-75
2024/03/07 00:50:02;;;;;;;22.20;10.10;;;;;;;-1.23;67.24;99839.89;78697;1293;3049488;-76
2024/03/07 00:52:29;;;;;;;20.30;9.60;;;;;;;-1.32;67.58;99845.45;79767;1297;3019277;-75
2024/03/07 00:54:56;;;;;;;22.10;10.00;;;;;;;-1.25;67.56;99843.52;80207;1292;3011843;-74
2024/03/07 00:57:24;;;;;;;22.80;10.20;;;;;;;-1.24;67.35;99844.73;78635;1295;3029462;-73
2024/03/07 00:59:50;;;;;;;21.10;9.70;;;;;;;-1.30;67.87;99842.88;79909;1290;3012674;-73
2024/03/07 01:02:17;;;;;;;23.30;11.20;;;;;;;-1.37;67.92;99840.49;79885;1292;3012855;-73
2024/03/07 01:04:46;;;;;;;23.40;10.50;;;;;;;-1.24;67.71;99840.08;78781;1297;3051069;-76
2024/03/07 01:07:13;;;;;;;21.20;11.00;;;;;;;-1.30;68.04;99839.61;79874;1293;3012921;-77
2024/03/07 01:09:46;;;;;;;18.90;10.40;;;;;;;-1.16;67.32;99841.23;79964;1293;3012063;-75
2024/03/07 01:12:12;;;;;;;17.70;9.40;;;;;;;-1.11;67.16;99839.30;79919;1291;3013472;-75
2024/03/07 01:14:39;;;;;;;24.70;10.40;;;;;;;-1.14;67.24;99840.17;81360;1297;3011220;-73
2024/03/07 01:17:08;;;;;;;23.40;10.20;;;;;;;-1.22;67.42;99840.23;78806;1297;3048974;-77
2024/03/07 01:19:35;;;;;;;19.40;9.80;;;;;;;-1.10;67.22;99845.14;79856;1293;3015157;-75
2024/03/07 01:22:02;;;;;;;22.50;10.20;;;;;;;-1.15;67.12;99842.59;79832;1293;3011601;-77
2024/03/07 01:24:30;;;;;;;20.50;11.10;;;;;;;-1.17;67.18;99842.09;78620;1296;3052424;-76
2024/03/07 01:26:56;;;;;;;20.60;9.60;;;;;;;-1.17;67.15;99841.58;79675;1296;3018783;-76
2024/03/07 01:29:23;;;;;;;22.80;12.00;;;;;;;-1.11;67.09;99848.94;79795;1295;3011510;-77
2024/03/07 01:31:51;;;;;;;24.50;11.30;;;;;;;-1.15;67.19;99846.21;78567;1294;3025878;-80
2024/03/07 01:34:17;;;;;;;20.90;11.00;;;;;;;-1.15;67.16;99843.63;79712;1293;3013227;-79
2024/03/07 01:36:44;;;;;;;24.90;11.70;;;;;;;-1.22;67.16;99844.88;79785;1296;3011686;-77
2024/03/07 01:39:12;;;;;;;21.60;11.40;;;;;;;-1.21;67.09;99847.61;78531;1293;3026612;-80
2024/03/07 01:41:40;;;;;;;22.60;10.80;;;;;;;-1.26;67.34;99846.10;79734;1297;3014004;-78
2024/03/07 01:44:07;;;;;;;21.60;10.90;;;;;;;-1.18;67.28;99847.43;79896;1297;3013456;-82
2024/03/07 01:46:35;;;;;;;21.90;11.00;;;;;;;-1.19;67.04;99849.34;78587;1296;3049814;-78
2024/03/07 01:49:01;;;;;;;24.80;10.70;;;;;;;-1.26;67.56;99854.36;79738;1296;3013505;-76
2024/03/07 01:51:28;;;;;;;23.70;11.10;;;;;;;-1.15;67.22;99850.50;79551;1298;3011695;-76
2024/03/07 01:53:59;;;;;;;19.20;9.30;;;;;;;-1.13;66.71;99852.71;78403;1298;3025899;-78
2024/03/07 01:56:26;;;;;;;18.30;9.30;;;;;;;-1.10;66.52;99855.80;80079;1293;3011536;-79
2024/03/07 01:58:54;;;;;;;18.70;9.70;;;;;;;-1.21;66.59;99856.89;79588;1292;3011271;-75
2024/03/07 02:01:21;;;;;;;14.50;8.80;;;;;;;-1.34;66.89;99861.28;79664;1293;3013176;-77
2024/03/07 02:03:48;;;;;;;20.10;10.20;;;;;;;-1.31;66.99;99860.06;79548;1299;3011646;-77
2024/03/07 02:06:16;;;;;;;19.20;9.40;;;;;;;-1.23;67.02;99859.66;78686;1296;3026643;-78
2024/03/07 02:08:43;;;;;;;18.50;9.60;;;;;;;-1.16;66.75;99859.45;79758;1296;3018321;-77
2024/03/07 02:11:09;;;;;;;21.20;9.00;;;;;;;-1.14;66.69;99862.88;79793;1296;3012793;-77
2024/03/07 02:13:37;;;;;;;21.40;10.10;;;;;;;-1.14;66.37;99862.88;78646;1293;3026416;-77
2024/03/07 02:16:03;;;;;;;24.50;10.40;;;;;;;-1.12;66.37;99862.69;79821;1292;3011778;-78
2024/03/07 02:18:30;;;;;;;24.40;9.80;;;;;;;-1.15;66.43;99865.45;79756;1296;3012772;-80
2024/03/07 02:21:00;;;;;;;20.30;9.70;;;;;;;-1.24;66.45;99867.41;78493;1295;3027317;-77
2024/03/07 02:23:27;;;;;;;18.00;10.10;;;;;;;-1.34;66.71;99873.31;79727;1293;3013216;-77
2024/03/07 02:25:56;;;;;;;22.10;9.50;;;;;;;-1.41;67.09;99872.84;79362;1295;3012961;-75
2024/03/07 02:28:23;;;;;;;19.70;9.50;;;;;;;-1.39;67.21;99876.77;79793;1296;3013241;-75
2024/03/07 02:30:49;;;;;;;18.40;9.40;;;;;;;-1.43;67.13;99878.00;79813;1292;3011837;-75
2024/03/07 02:33:17;;;;;;;18.50;9.60;;;;;;;-1.35;66.72;99879.33;78662;1296;3028578;-77
2024/03/07 02:35:44;;;;;;;18.20;8.80;;;;;;;-1.38;66.67;99878.83;79880;1297;3014106;-77
2024/03/07 02:38:10;;;;;;;17.50;8.70;;;;;;;-1.37;66.68;99876.42;79860;1296;3011612;-80
2024/03/07 02:40:38;;;;;;;20.60;9.50;;;;;;;-1.42;66.67;99880.73;78556;1295;3026640;-78
2024/03/07 02:43:05;;;;;;;21.20;11.10;;;;;;;-1.43;66.76;99877.83;79856;1295;3013017;-75
2024/03/07 02:45:32;;;;;;;22.30;10.10;;;;;;;-1.43;66.60;99881.95;79961;1293;3011744;-76
2024/03/07 02:48:00;;;;;;;17.70;9.50;;;;;;;-1.41;66.67;99879.87;78778;1296;3026571;-77
2024/03/07 02:50:26;;;;;;;21.40;9.70;;;;;;;-1.44;66.86;99879.20;79965;1296;3013268;-76
2024/03/07 02:52:53;;;;;;;20.30;9.50;;;;;;;-1.46;66.83;99880.76;79675;1292;3011656;-76
2024/03/07 02:55:21;;;;;;;18.90;9.30;;;;;;;-1.42;66.82;99878.84;78452;1295;3026547;-75
2024/03/07 02:57:47;;;;;;;23.10;10.50;;;;;;;-1.46;67.03;99881.45;79766;1296;3012907;-76
2024/03/07 03:00:26;;;;;;;19.30;10.40;;;;;;;-1.46;67.16;99880.25;79781;1291;3012989;-72
2024/03/07 03:02:54;;;;;;;19.30;10.30;;;;;;;-1.47;67.21;99879.23;78568;1295;3048318;-76
2024/03/07 03:05:20;;;;;;;19.80;9.80;;;;;;;-1.50;66.97;99876.14;79817;1292;3019113;-74
2024/03/07 03:07:53;;;;;;;17.90;10.40;;;;;;;-1.50;66.59;99881.81;79823;1296;3011284;-77
2024/03/07 03:10:25;;;;;;;24.20;9.50;;;;;;;-1.51;66.81;99885.95;78680;1293;3051725;-76
2024/03/07 03:12:57;;;;;;;17.90;9.30;;;;;;;-1.51;66.57;99881.13;79789;1293;3013204;-77
2024/03/07 03:15:26;;;;;;;18.40;8.80;;;;;;;-1.51;65.87;99884.05;78617;1291;3051146;-72
2024/03/07 03:17:54;;;;;;;17.40;9.00;;;;;;;-1.52;65.40;99885.27;79917;1294;3012817;-80
2024/03/07 03:20:24;;;;;;;16.10;7.80;;;;;;;-1.57;65.12;99891.64;80215;1291;3011542;-79
2024/03/07 03:22:52;;;;;;;17.40;8.40;;;;;;;-1.59;64.79;99889.59;78621;1295;3050295;-77
2024/03/07 03:25:20;;;;;;;17.10;8.20;;;;;;;-1.62;64.89;99889.42;79866;1293;3012375;-74
2024/03/07 03:27:47;;;;;;;19.40;9.10;;;;;;;-1.61;64.62;99891.30;79716;1292;3011449;-74
2024/03/07 03:30:18;;;;;;;19.00;8.40;;;;;;;-1.60;64.66;99891.14;78489;1293;3051338;-75
2024/03/07 03:32:48;;;;;;;16.60;8.80;;;;;;;-1.66;64.78;99892.36;79681;1293;3013276;-78
2024/03/07 03:35:16;;;;;;;16.80;8.70;;;;;;;-1.74;64.66;99896.86;78667;1296;3050128;-77
2024/03/07 03:37:43;;;;;;;18.10;8.90;;;;;;;-1.81;64.91;99899.98;79878;1294;3013674;-76
2024/03/07 03:40:10;;;;;;;18.50;9.30;;;;;;;-1.66;64.89;99900.09;79955;1296;3011656;-75
2024/03/07 03:42:38;;;;;;;20.40;8.70;;;;;;;-1.70;64.68;99895.45;78520;1295;3028434;-78
2024/03/07 03:45:06;;;;;;;17.30;9.10;;;;;;;-1.74;64.80;99903.55;79896;1296;3011630;-77
2024/03/07 03:47:37;;;;;;;18.20;8.90;;;;;;;-1.69;64.92;99901.30;79386;1294;3011942;-75
2024/03/07 03:50:05;;;;;;;17.60;8.40;;;;;;;-1.64;64.83;99901.81;79843;1294;3013627;-76
2024/03/07 03:52:36;;;;;;;21.80;9.60;;;;;;;-1.69;64.74;99904.23;79203;1294;3011457;-78
2024/03/07 03:55:05;;;;;;;17.50;8.60;;;;;;;-1.64;64.91;99906.61;80153;1297;3013154;-78
2024/03/07 03:57:33;;;;;;;20.60;9.80;;;;;;;-1.70;64.88;99908.00;78653;1295;3051331;-78
2024/03/07 04:00:00;;;;;;;19.00;9.40;;;;;;;-1.75;65.17;99908.36;79819;1292;3018756;-78
2024/03/07 04:02:27;;;;;;;19.20;9.80;;;;;;;-1.69;65.19;99910.58;79897;1292;3011615;-74
2024/03/07 04:04:55;;;;;;;15.60;8.60;;;;;;;-1.62;65.10;99913.14;78997;1291;3028707;-75
2024/03/07 04:07:22;;;;;;;19.40;9.60;;;;;;;-1.62;65.05;99911.42;80142;1293;3012806;-76
2024/03/07 04:09:48;;;;;;;21.20;8.90;;;;;;;-1.58;65.04;99915.35;80027;1292;3011562;-79
2024/03/07 04:12:16;;;;;;;16.80;8.70;;;;;;;-1.52;64.63;99919.62;78793;1295;3026510;-78
2024/03/07 04:14:43;;;;;;;15.40;8.40;;;;;;;-1.48;65.06;99916.18;80135;1292;3018841;-78
2024/03/07 04:17:13;;;;;;;18.00;8.60;;;;;;;-1.48;64.91;99922.02;80105;1294;3013886;-77
2024/03/07 04:19:41;;;;;;;22.20;9.30;;;;;;;-1.56;65.07;99927.54;78690;1296;3057491;-78
2024/03/07 04:22:08;;;;;;;20.20;9.80;;;;;;;-1.51;65.05;99924.77;79917;1292;3012863;-79
2024/03/07 04:24:35;;;;;;;19.70;9.20;;;;;;;-1.54;64.95;99934.07;80877;1294;3011653;-78
2024/03/07 04:27:06;;;;;;;19.00;9.40;;;;;;;-1.59;65.25;99940.61;79244;1293;3026189;-77
2024/03/07 04:29:33;;;;;;;19.50;8.80;;;;;;;-1.56;65.37;99939.57;82175;1292;3011260;-78
2024/03/07 04:32:06;;;;;;;18.60;8.90;;;;;;;-1.55;65.12;99939.05;80889;1292;3027258;-78
2024/03/07 04:34:33;;;;;;;20.50;9.30;;;;;;;-1.54;65.12;99941.10;80055;1292;3011610;-77
2024/03/07 04:37:01;;;;;;;20.90;9.10;;;;;;;-1.48;65.02;99943.48;78706;1292;3025986;-76
2024/03/07 04:39:33;;;;;;;20.60;8.60;;;;;;;-1.47;64.95;99948.99;80093;1292;3013134;-74
2024/03/07 04:42:04;;;;;;;18.50;8.20;;;;;;;-1.46;64.80;99948.98;78849;1292;3053083;-76
2024/03/07 04:44:30;;;;;;;18.60;8.70;;;;;;;-1.48;65.03;99952.27;79543;1295;3013020;-75
2024/03/07 04:46:59;;;;;;;19.10;9.00;;;;;;;-1.45;64.61;99952.24;78643;1295;3026035;-76
2024/03/07 04:49:27;;;;;;;16.40;8.70;;;;;;;-1.45;64.63;99953.27;79819;1295;3013343;-74
2024/03/07 04:51:55;;;;;;;18.90;8.20;;;;;;;-1.40;64.33;99959.95;79814;1292;3013194;-73
2024/03/07 04:54:23;;;;;;;16.80;8.30;;;;;;;-1.45;64.56;99958.42;78442;1293;3050192;-76
2024/03/07 04:56:51;;;;;;;19.10;9.20;;;;;;;-1.52;64.66;99962.07;79768;1296;3013818;-78
2024/03/07 04:59:18;;;;;;;21.60;9.20;;;;;;;-1.54;65.17;99959.32;79741;1295;3013902;-78
2024/03/07 05:01:47;;;;;;;17.10;8.10;;;;;;;-1.53;65.12;99962.41;78706;1297;3052710;-76
2024/03/07 05:04:14;;;;;;;19.70;8.50;;;;;;;-1.45;64.71;99965.47;79951;1293;3011639;-76
2024/03/07 05:06:41;;;;;;;16.10;7.90;;;;;;;-1.35;64.57;99967.66;79952;1292;3011511;-78
2024/03/07 05:09:09;;;;;;;24.60;8.80;;;;;;;-1.35;64.27;99966.46;78531;1295;3048976;-74
2024/03/07 05:11:37;;;;;;;15.30;8.10;;;;;;;-1.27;63.98;99965.92;79862;1292;3013075;-80
2024/03/07 05:14:03;;;;;;;14.80;8.10;;;;;;;-1.19;63.97;99968.12;79870;1295;3011461;-75
2024/03/07 05:16:31;;;;;;;15.00;7.60;;;;;;;-1.22;63.79;99965.72;78588;1294;3051694;-74
2024/03/07 05:18:59;;;;;;;14.90;7.50;;;;;;;-1.09;63.41;99969.27;79775;1294;3013427;-76
2024/03/07 05:24:01;;;;;;;15.30;7.80;;;;;;;-1.11;62.99;99972.55;78535;1292;3049444;-75
2024/03/07 05:26:28;;;;;;;14.70;7.90;;;;;;;-1.11;62.80;99969.80;79979;1292;3013046;-74
2024/03/07 05:28:56;;;;;;;14.20;7.30;;;;;;;-1.20;62.86;99974.48;79748;1296;3011743;-76
2024/03/07 05:31:25;;;;;;;15.70;8.80;;;;;;;-1.19;63.09;99969.33;78684;1295;3052340;-76
2024/03/07 05:33:51;;;;;;;17.40;8.10;;;;;;;-1.21;62.68;99972.77;79780;1295;3012857;-74
2024/03/07 05:36:20;;;;;;;22.50;9.00;;;;;;;-1.33;63.22;99974.02;79859;1296;3013028;-76
2024/03/07 05:38:49;;;;;;;15.40;7.70;;;;;;;-1.12;63.28;99964.47;78660;1293;3049817;-75
2024/03/07 05:41:16;;;;;;;18.20;8.10;;;;;;;-1.11;62.48;99969.80;80093;1294;3013546;-77
2024/03/07 05:43:44;;;;;;;16.00;7.70;;;;;;;-1.01;62.53;99969.58;80001;1296;3013216;-75
2024/03/07 05:46:13;;;;;;;14.60;8.00;;;;;;;-0.96;61.76;99971.09;78670;1296;3053283;-76
2024/03/07 05:48:39;;;;;;;15.00;8.10;;;;;;;-0.91;61.46;99975.37;80482;1294;3013025;-76
2024/03/07 05:51:06;;;;;;;18.10;8.40;;;;;;;-0.87;61.21;99976.38;80549;1293;3011485;-75
2024/03/07 05:53:35;;;;;;;13.50;7.80;;;;;;;-0.98;60.91;99974.89;79355;1292;3048319;-73
2024/03/07 05:56:02;;;;;;;19.80;7.80;;;;;;;-0.93;60.86;99976.23;80121;1296;3013094;-76
2024/03/07 05:58:28;;;;;;;19.00;7.60;;;;;;;-0.74;61.10;99972.34;80124;1293;3011870;-73
2024/03/07 06:00:56;;;;;;;19.70;7.70;;;;;;;-0.67;60.76;99975.05;79074;1292;3051442;-75
2024/03/07 06:03:25;;;;;;;14.30;7.80;;;;;;;-0.56;60.73;99973.42;80203;1293;3012878;-77
2024/03/07 06:05:53;;;;;;;15.30;8.20;;;;;;;-0.54;60.13;99969.11;80618;1293;3011599;-76
2024/03/07 06:08:21;;;;;;;19.70;7.30;;;;;;;-0.62;59.78;99968.14;79313;1294;3048809;-75
2024/03/07 06:10:50;;;;;;;16.00;7.70;;;;;;;-0.54;59.96;99969.12;80615;1296;3018594;-76
2024/03/07 06:13:16;;;;;;;18.70;8.20;;;;;;;-0.51;59.27;99973.91;80729;1293;3011685;-76
2024/03/07 06:15:45;;;;;;;16.60;8.30;;;;;;;-0.72;59.80;99978.17;79020;1296;3051295;-75
2024/03/07 06:18:15;;;;;;;13.60;7.20;;;;;;;-0.56;59.80;99974.28;80917;1297;3013094;-74
2024/03/07 06:20:43;;;;;;;15.90;7.40;;;;;;;-0.55;59.26;99977.71;79305;1293;3055453;-74
2024/03/07 06:23:11;;;;;;;16.80;7.60;;;;;;;-0.56;59.46;99983.06;80432;1293;3013072;-74
2024/03/07 06:25:47;;;;;;;15.90;7.50;;;;;;;-0.56;59.57;99978.23;80344;1292;3011993;-76
2024/03/07 06:28:15;;;;;;;14.20;7.60;;;;;;;-0.61;59.63;99981.89;79100;1297;3053791;-76
2024/03/07 06:30:46;;;;;;;14.80;8.00;;;;;;;-0.69;59.86;99982.63;80098;1294;3012911;-78
2024/03/07 06:33:14;;;;;;;14.70;7.70;;;;;;;-0.58;60.01;99980.67;78625;1297;3051869;-80
2024/03/07 06:35:41;;;;;;;15.50;7.70;;;;;;;-0.58;59.49;99979.13;79784;1294;3018914;-80
2024/03/07 06:38:10;;;;;;;12.70;7.00;;;;;;;-0.54;59.71;99978.23;80303;1294;3011623;-76
2024/03/07 06:40:42;;;;;;;16.80;7.70;;;;;;;-0.44;59.77;99983.49;78802;1293;3049170;-78
2024/03/07 06:43:10;;;;;;;;;;;;;;;-0.49;59.77;99981.46;80242;1296;3011587;-78
2024/03/07 06:45:39;;;;;;;16.30;7.00;;;;;;;-0.44;59.43;99981.79;78810;1294;3051726;-81
2024/03/07 06:48:09;;;;;;;17.20;8.80;;;;;;;-0.52;59.58;99983.55;80003;1294;3013883;-75
2024/03/07 06:50:37;;;;;;;18.40;9.40;;;;;;;-0.61;59.69;99988.96;79125;1291;3055079;-78
2024/03/07 06:53:06;;;;;;;18.80;8.90;;;;;;;-0.55;59.85;99986.67;80031;1290;3013519;-74
2024/03/07 06:55:37;;;;;;;18.80;9.70;;;;;;;-0.46;59.68;99988.33;79319;1296;3013215;-74
2024/03/07 06:58:04;;;;;;;20.80;8.70;;;;;;;-0.32;59.25;99991.16;80067;1295;3012826;-77
2024/03/07 07:00:35;;;;;;;14.10;7.50;;;;;;;-0.19;59.09;99993.47;79976;1295;3013233;-79
2024/03/07 07:03:04;;;;;;;17.80;8.40;;;;;;;0.00;58.46;99999.33;78952;1292;3069136;-73
2024/03/07 07:05:30;;;;;;;18.90;7.80;;;;;;;0.11;58.42;99998.37;80571;1291;3013677;-76
2024/03/07 07:07:57;;;;;;;18.20;8.80;;;;;;;0.08;57.65;99994.95;80867;1295;3011774;-74
2024/03/07 07:10:25;;;;;;;15.90;8.70;;;;;;;0.01;58.15;99990.36;78810;1292;3052542;-78
2024/03/07 07:12:54;;;;;;;19.40;9.00;;;;;;;0.13;58.29;99992.49;79915;1292;3013154;-81
2024/03/07 07:15:23;;;;;;;17.20;8.40;;;;;;;0.22;57.70;99994.65;79558;1295;3011653;-82
2024/03/07 07:17:50;;;;;;;14.80;8.70;;;;;;;0.37;57.36;99993.11;80924;1291;3013344;-78
2024/03/07 07:20:17;;;;;;;17.60;9.00;;;;;;;0.40;57.03;99992.20;80326;1291;3011767;-75
2024/03/07 07:22:46;;;;;;;20.00;9.80;;;;;;;0.39;57.20;99993.59;79267;1291;3026251;-80
2024/03/07 07:25:16;;;;;;;17.80;9.10;;;;;;;0.43;57.42;99994.44;80161;1292;3013431;-79
2024/03/07 07:27:45;;;;;;;18.40;8.30;;;;;;;0.55;56.86;99997.91;78991;1294;3050104;-77
2024/03/07 07:30:13;;;;;;;19.30;9.50;;;;;;;0.54;56.85;99998.80;80932;1295;3012383;-75
2024/03/07 07:32:43;;;;;;;15.30;8.70;;;;;;;0.54;57.03;99996.90;81591;1294;3011649;-79
2024/03/07 07:35:13;;;;;;;23.90;10.00;;;;;;;0.45;56.65;99995.26;81084;1291;3012483;-80
2024/03/07 07:37:43;;;;;;;21.70;9.10;;;;;;;0.54;57.16;99999.14;79447;1291;3011759;-78
2024/03/07 07:40:14;;;;;;;20.90;9.40;;;;;;;0.41;57.30;99998.42;80536;1290;3013174;-78
2024/03/07 07:42:42;;;;;;;21.20;8.30;;;;;;;0.68;56.68;99993.97;78727;1295;3051830;-83
2024/03/07 07:45:12;;;;;;;16.60;9.10;;;;;;;0.80;56.38;99994.52;79988;1294;3013653;-77
2024/03/07 07:47:45;;;;;;;22.70;9.80;;;;;;;1.03;55.43;99992.52;78754;1291;3051835;-80
2024/03/07 07:50:13;;;;;;;19.70;9.30;;;;;;;1.12;55.48;99990.14;79989;1293;3011493;-80
2024/03/07 07:52:53;;;;;;;19.20;10.00;;;;;;;1.15;55.26;99993.21;78972;1291;3050015;-81
2024/03/07 07:55:25;;;;;;;15.90;8.60;;;;;;;1.07;55.51;99997.29;78866;1297;3056983;-82
2024/03/07 07:57:58;;;;;;;19.20;10.20;;;;;;;1.05;55.27;99999.04;79845;1291;3013172;-82
2024/03/07 08:00:28;;;;;;;20.00;9.60;;;;;;;1.14;55.23;99999.27;78844;1291;3053263;-79
2024/03/07 08:02:55;;;;;;;17.30;8.80;;;;;;;1.24;54.95;100003.80;80457;1295;3014197;-80
2024/03/07 08:05:27;;;;;;;20.30;10.60;;;;;;;1.26;54.81;100001.53;80093;1297;3011572;-81
2024/03/07 08:07:57;;;;;;;21.70;9.60;;;;;;;1.24;54.57;100008.63;78676;1292;3070562;-78
2024/03/07 08:10:25;;;;;;;18.40;9.70;;;;;;;1.19;54.61;100007.65;80176;1291;3013155;-77
2024/03/07 08:12:55;;;;;;;25.20;9.90;;;;;;;1.18;54.16;100009.92;78696;1292;3057127;-75
2024/03/07 08:15:27;;;;;;;18.10;9.30;;;;;;;1.28;54.17;100007.02;79969;1291;3011638;-75
2024/03/07 08:17:55;;;;;;;20.40;10.10;;;;;;;1.38;54.47;100007.39;79223;1291;3053417;-78
2024/03/07 08:20:22;;;;;;;19.20;9.60;;;;;;;1.30;54.26;100009.58;79815;1294;3013498;-76
2024/03/07 08:22:52;;;;;;;21.70;10.50;;;;;;;1.38;54.88;100009.83;79918;1294;3011589;-77
2024/03/07 08:25:21;;;;;;;17.60;9.00;;;;;;;1.44;54.56;100011.11;78630;1292;3068851;-74
2024/03/07 08:27:48;;;;;;;23.20;9.90;;;;;;;1.55;54.17;100013.02;79881;1291;3012132;-74
2024/03/07 08:30:15;;;;;;;19.30;10.00;;;;;;;1.61;53.42;100012.23;80054;1292;3011521;-75
2024/03/07 08:32:47;;;;;;;17.90;9.20;;;;;;;1.55;53.26;100012.84;78884;1291;3053410;-78
2024/03/07 08:35:13;;;;;;;16.60;9.10;;;;;;;1.62;53.24;100014.30;80042;1291;3011863;-79
2024/03/07 08:37:42;;;;;;;22.20;8.30;;;;;;;2.01;52.84;100016.79;78975;1295;3026538;-80
2024/03/07 08:40:09;;;;;;;15.10;8.60;;;;;;;2.23;51.68;100019.87;80358;1297;3013351;-77
2024/03/07 08:42:37;;;;;;;18.30;9.40;;;;;;;2.31;50.94;100017.99;80842;1291;3012969;-77
2024/03/07 08:45:05;;;;;;;20.50;9.20;;;;;;;2.33;51.07;100016.41;79178;1292;3056685;-75
2024/03/07 08:47:33;;;;;;;20.60;9.40;;;;;;;2.34;50.94;100011.90;80813;1291;3011408;-78
2024/03/07 08:50:00;;;;;;;22.30;10.40;;;;;;;2.10;51.41;100014.91;80789;1295;3013288;-77
2024/03/07 08:52:30;;;;;;;19.80;11.20;;;;;;;1.97;52.15;100012.36;79797;1295;3052486;-78
2024/03/07 08:54:56;;;;;;;24.20;11.00;;;;;;;2.08;51.76;100012.19;80855;1295;3012045;-80
2024/03/07 08:57:23;;;;;;;18.10;9.70;;;;;;;2.13;51.96;100015.37;81086;1292;3012900;-78
2024/03/07 08:59:51;;;;;;;20.60;9.70;;;;;;;2.23;51.36;100014.88;79793;1292;3057325;-81
2024/03/07 09:02:17;;;;;;;17.50;9.20;;;;;;;2.42;51.22;100014.69;81052;1293;3013358;-78
2024/03/07 09:04:44;;;;;;;17.70;9.50;;;;;;;2.39;50.62;100012.50;80565;1292;3012127;-80
2024/03/07 09:07:14;;;;;;;17.80;9.90;;;;;;;2.28;50.47;100009.23;79021;1296;3052307;-82
2024/03/07 09:09:45;;;;;;;17.30;9.60;;;;;;;2.28;51.13;100012.17;80107;1295;3013374;-80
2024/03/07 09:12:13;;;;;;;22.40;9.30;;;;;;;2.50;50.59;100015.06;78864;1295;3051249;-81
2024/03/07 09:14:39;;;;;;;24.20;10.00;;;;;;;2.62;50.28;100013.27;80057;1294;3013092;-80
2024/03/07 09:17:06;;;;;;;21.70;10.40;;;;;;;2.70;50.14;100010.85;80243;1294;3011660;-82
2024/03/07 09:19:34;;;;;;;17.40;10.00;;;;;;;3.04;50.00;100005.37;78921;1297;3025253;-81
2024/03/07 09:22:03;;;;;;;20.20;10.30;;;;;;;3.08;49.32;100013.90;80230;1297;3018583;-79
2024/03/07 09:24:30;;;;;;;24.60;11.70;;;;;;;3.21;48.91;100011.90;80114;1294;3011711;-82
2024/03/07 09:26:58;;;;;;;18.00;9.80;;;;;;;3.08;49.21;100016.70;78888;1291;3050745;-78
2024/03/07 09:29:25;;;;;;;23.90;10.80;;;;;;;2.94;49.00;100020.61;80199;1291;3012869;-80
2024/03/07 09:31:53;;;;;;;20.30;9.90;;;;;;;3.03;48.75;100020.08;80179;1294;3011617;-80
2024/03/07 09:34:21;;;;;;;16.30;9.50;;;;;;;2.99;48.37;100023.96;78801;1295;3048077;-80
2024/03/07 09:36:48;;;;;;;18.40;9.50;;;;;;;3.28;48.38;100013.85;80378;1295;3013267;-79
2024/03/07 09:39:18;;;;;;;18.90;9.30;;;;;;;3.39;47.58;100011.52;80148;1295;3013627;-81
2024/03/07 09:41:46;;;;;;;18.10;8.30;;;;;;;3.47;47.67;100006.13;78895;1296;3051455;-82
2024/03/07 09:44:17;;;;;;;19.20;10.00;;;;;;;3.34;47.60;100006.08;80121;1291;3013188;-79
2024/03/07 09:46:45;;;;;;;20.60;9.90;;;;;;;3.44;47.70;100006.02;78873;1296;3055593;-82
2024/03/07 09:49:12;;;;;;;20.40;9.50;;;;;;;3.53;47.74;100000.79;80251;1297;3012916;-80
2024/03/07 09:51:44;;;;;;;18.40;9.30;;;;;;;3.87;47.16;100000.36;80252;1297;3011352;-80
2024/03/07 09:54:13;;;;;;;16.40;9.80;;;;;;;4.08;46.58;100002.25;78738;1293;3068803;-78
2024/03/07 09:56:40;;;;;;;21.20;9.20;;;;;;;4.16;46.06;99996.69;80079;1294;3011901;-80
2024/03/07 09:59:06;;;;;;;22.50;9.40;;;;;;;3.90;46.57;99997.66;79934;1291;3011841;-80
2024/03/07 10:01:37;;;;;;;19.60;9.90;;;;;;;4.17;46.35;99993.19;78890;1296;3052764;-78
2024/03/07 10:04:14;;;;;;;15.60;9.00;;;;;;;4.25;45.62;99992.12;80380;1294;3013190;-78
2024/03/07 10:06:45;;;;;;;16.90;9.50;;;;;;;4.28;45.54;99989.41;78967;1291;3052077;-78
2024/03/07 10:09:15;;;;;;;14.20;8.30;;;;;;;3.92;45.73;99983.27;80021;1295;3013146;-80
2024/03/07 10:11:43;;;;;;;17.40;9.30;;;;;;;4.11;45.88;99978.42;78708;1293;3068744;-78
2024/03/07 10:14:10;;;;;;;16.00;8.70;;;;;;;4.29;45.98;99980.91;80140;1291;3013480;-77
2024/03/07 10:16:38;;;;;;;17.90;9.60;;;;;;;4.10;45.98;99980.00;80019;1296;3011618;-79
2024/03/07 10:19:07;;;;;;;16.70;9.10;;;;;;;3.85;46.68;99977.70;78882;1292;3052847;-80
2024/03/07 10:21:36;;;;;;;15.20;8.50;;;;;;;4.20;45.90;99976.63;80277;1292;3013152;-78
2024/03/07 10:24:06;;;;;;;22.20;9.30;;;;;;;4.36;45.12;99977.09;78792;1294;3026158;-79
2024/03/07 10:26:37;;;;;;;19.00;9.60;;;;;;;4.28;45.25;99980.40;80125;1291;3013673;-79
2024/03/07 10:29:07;;;;;;;16.30;9.70;;;;;;;4.43;45.15;99980.36;78899;1292;3068290;-80
2024/03/07 10:31:34;;;;;;;19.80;8.90;;;;;;;4.57;45.14;99978.95;80254;1294;3013062;-77
2024/03/07 10:34:04;;;;;;;14.50;8.40;;;;;;;4.76;44.80;99976.49;79009;1292;3026554;-79
2024/03/07 10:36:31;;;;;;;15.60;8.00;;;;;;;4.89;44.13;99976.13;80217;1291;3019106;-78
2024/03/07 10:39:12;;;;;;;13.90;8.90;;;;;;;4.95;43.95;99972.81;80090;1291;3011780;-77
2024/03/07 10:41:46;;;;;;;19.20;9.40;;;;;;;4.88;43.72;99970.77;78817;1297;3051192;-79
2024/03/07 10:44:21;;;;;;;21.10;9.90;;;;;;;4.67;43.91;99970.83;79601;1294;3011706;-80
2024/03/07 10:46:54;;;;;;;21.80;9.30;;;;;;;4.60;44.58;99968.61;79912;1294;3011884;-79
2024/03/07 10:49:28;;;;;;;17.70;8.50;;;;;;;4.62;44.35;99968.38;78831;1291;3068423;-76
2024/03/07 10:52:13;;;;;;;20.90;10.10;;;;;;;4.79;43.96;99962.19;80095;1294;3013359;-77
2024/03/07 10:54:51;;;;;;;17.80;9.10;;;;;;;4.93;44.29;99961.23;78849;1293;3056369;-76
2024/03/07 10:57:39;;;;;;;18.70;9.70;;;;;;;5.00;43.63;99960.02;78916;1295;3049414;-78
2024/03/07 11:03:07;;;;;;;14.40;8.30;;;;;;;4.87;43.42;99956.75;78662;1295;3050667;-79
2024/03/07 11:05:35;;;;;;;15.10;7.90;;;;;;;5.11;42.92;99956.21;80530;1292;3012902;-79
2024/03/07 11:08:07;;;;;;;18.10;9.40;;;;;;;5.13;42.74;99959.45;79236;1297;3026436;-79
2024/03/07 11:10:34;;;;;;;18.60;8.80;;;;;;;5.37;42.60;99955.60;80400;1291;3011369;-80
2024/03/07 11:13:02;;;;;;;19.10;9.50;;;;;;;5.44;42.29;99961.95;78898;1295;3052133;-80
2024/03/07 11:15:33;;;;;;;14.60;8.70;;;;;;;5.44;42.22;99956.77;80461;1293;3013164;-77
2024/03/07 11:18:01;;;;;;;17.30;9.50;;;;;;;5.40;42.24;99957.39;79880;1292;3026429;-77
2024/03/07 11:20:34;;;;;;;16.50;9.50;;;;;;;5.18;42.58;99956.33;80725;1296;3012770;-78